Clovis, CA

11:14 AM PDT on August 21, 2014 (GMT -0700)
Clovis East | Change Station
CLOSE
Current Station
Personal Weather Station
Location: Clovis, CA
Elevation: 387 ft
Nearby Weather Stations

Elev 387 ft 36.80 °N, 119.67 °W | Updated 3 minutes ago

Clear
Clear
81.9 °F
Feels Like 82 °F
N
2.0
Wind Variable Wind from WSW
Gusts 5.0 mph

Today
High -- | Low -- °F
--% Chance of Precip.
Yesterday
High -- | Low -- °F
Precip. -- in
6:20 AM 7:42 PM
Waning Crescent, 13% visible
Pressure 29.93 in
Visibility 9.0 miles
Clouds Clear
Heat Index 82 °F
Dew Point 60 °F
Humidity 48%
Rainfall 0.00 in
Snow Depth Not available.
UV 8 out of 12
Pollen 8.30 out of 12
Ozone Good
Flu Activity Not available.
METAR KFAT 211753Z 00000KT 9SM CLR 28/14 A2994 RMK AO2 SLP135 MTNS OBSC FU HZ DSNT N-E-S T02780139 10283 20200 50004

More Conditions Fewer Conditions

Pressure 29.93 in
Visibility 9.0 miles
Clouds Clear
Heat Index 82 °F
Dew Point 60 °F
Humidity 48%
Rainfall 0.00 in
Snow Depth Not available.
UV 8 out of 12
Pollen 8.30 out of 12
Ozone Good
Flu Activity Not available.
METAR KFAT 211753Z 00000KT 9SM CLR 28/14 A2994 RMK AO2 SLP135 MTNS OBSC FU HZ DSNT N-E-S T02780139 10283 20200 50004

More Conditions Fewer Conditions

10-Day Weather Forecast

Almanac

Astronomy

Aug. 21, 2014 Rise Set
Actual Time 6:20 AM PDT 7:42 PM PDT
Civil Twilight 5:53 AM PDT 8:09 PM PDT
Nautical Twilight 5:21 AM PDT 8:41 PM PDT
Astronomical Twilight 4:47 AM PDT 9:15 PM PDT
Moon 2:57 AM PDT 5:12 PM PDT
Length of Visible Light 14h 15m
Length of Day
13h 21m
Tomorrow will be 2m 8s shorter.
Waning Crescent, 13% of the Moon is Illuminated
Today
Waning Crescent
Aug 25
New
Sep 2
First Quarter
Sep 8
Full
Sep 15
Last Quarter

Today's Extremes

State Highs State Lows

Community

WunderPhotos

Upload Photos

1,745,992 photos uploaded!

WunderBlogs® & News

Nearby

Air Quality

  Air Quality AQ Index Pollutant
Yesterday Moderate
OZONE
Current Good
OZONE
Thursday Moderate
OZONE
Friday Moderate
OZONE
Saturday Moderate
OZONE
Sunday Moderate
OZONE
Monday Moderate
OZONE

Snow Depth

Station Depth Elevation
Blue Lakes 0 in 8000 ft
Adin Mountain 0 in 6200 ft
Cedar Pass 1 in 7100 ft
Crowder Flat 0 in 5100 ft

Earthquake Activity

City Distance Mag. Time & Date
King City, California 76 miles 2.7 10:26 PM PDT
2014-08-15
Kettleman City, California 58 miles 2.9 11:32 PM PDT
2014-08-14
King City, California 76 miles 2.9 8:01 PM PDT
2014-08-14
Minimum magnitude displayed is 2.5.

Coastal Water Temperatures

Place Temperature
No Stations Reporting

Nearby Weather Stations